WJA840 CYEG-CYYG
Flight info
| Callsign | WJA840 |
|---|---|
| Flight time | 4h 31m |
| Altitude | 33000 |
| Route | RYLEY DCT YQD DCT 53N090W DCT MOGAG/N0461F350 DCT MOFAT DCT MIILS |
| Aircraft | B738/M-SDE2E3FGHIRWXY/LB1 |
Departure
| Time | 2026-04-28 21:56 |
|---|---|
| Airport | Edmonton International Airport (CYEG) |
Arrival
| Time | 2026-04-29 02:28 |
|---|---|
| Airport | Charlottetown Airport (CYYG) |
| Time | Latitude | Longitude | Altitude | Speed | Heading |
|---|---|---|---|---|---|
| 2026-04-28 21:34 | 53.30631 | -113.58528 | 2338 ft | 0 kts | 42° |
| 2026-04-28 21:48 | 53.30628 | -113.58532 | 2335 ft | 2 kts | 42° |
| 2026-04-28 21:48 | 53.30618 | -113.58549 | 2335 ft | 2 kts | 41° |
| 2026-04-28 21:48 | 53.30606 | -113.58566 | 2334 ft | 2 kts | 41° |
| 2026-04-28 21:48 | 53.30595 | -113.58582 | 2333 ft | 2 kts | 41° |
| 2026-04-28 21:49 | 53.30584 | -113.58598 | 2333 ft | 2 kts | 41° |
| 2026-04-28 21:49 | 53.30573 | -113.58616 | 2332 ft | 2 kts | 41° |
| 2026-04-28 21:49 | 53.30563 | -113.58631 | 2331 ft | 1 kts | 41° |
| 2026-04-28 21:49 | 53.30555 | -113.58643 | 2331 ft | 2 kts | 36° |
| 2026-04-28 21:50 | 53.30542 | -113.58656 | 2330 ft | 1 kts | 24° |
| 2026-04-28 21:50 | 53.30536 | -113.58660 | 2330 ft | 1 kts | 20° |
| 2026-04-28 21:50 | 53.30534 | -113.58661 | 2330 ft | 0 kts | 20° |
| 2026-04-28 21:52 | 53.30536 | -113.58660 | 2330 ft | 1 kts | 21° |
| 2026-04-28 21:52 | 53.30576 | -113.58656 | 2330 ft | 7 kts | 332° |
| 2026-04-28 21:53 | 53.30595 | -113.58740 | 2328 ft | 9 kts | 253° |
| 2026-04-28 21:53 | 53.30553 | -113.58824 | 2327 ft | 9 kts | 224° |
| 2026-04-28 21:53 | 53.30529 | -113.58925 | 2324 ft | 11 kts | 299° |
| 2026-04-28 21:53 | 53.30586 | -113.59025 | 2322 ft | 12 kts | 314° |
| 2026-04-28 21:54 | 53.30647 | -113.59126 | 2320 ft | 12 kts | 315° |
| 2026-04-28 21:54 | 53.30708 | -113.59226 | 2319 ft | 12 kts | 315° |
| 2026-04-28 21:54 | 53.30767 | -113.59326 | 2318 ft | 12 kts | 316° |
| 2026-04-28 21:54 | 53.30828 | -113.59423 | 2317 ft | 12 kts | 316° |
| 2026-04-28 21:55 | 53.30888 | -113.59522 | 2315 ft | 11 kts | 311° |
| 2026-04-28 21:55 | 53.30924 | -113.59574 | 2315 ft | 4 kts | 9° |
| 2026-04-28 21:55 | 53.30955 | -113.59542 | 2314 ft | 11 kts | 33° |
| 2026-04-28 21:55 | 53.31209 | -113.59252 | 2313 ft | 74 kts | 35° |
| 2026-04-28 21:56 | 53.31795 | -113.58571 | 2316 ft | 128 kts | 34° |
| 2026-04-28 21:56 | 53.32643 | -113.57579 | 2348 ft | 169 kts | 34° |
| 2026-04-28 21:56 | 53.33612 | -113.56468 | 2923 ft | 169 kts | 32° |
| 2026-04-28 21:56 | 53.34596 | -113.55383 | 3498 ft | 172 kts | 33° |
| 2026-04-28 21:57 | 53.35595 | -113.54238 | 3931 ft | 182 kts | 33° |
| 2026-04-28 21:57 | 53.36682 | -113.52966 | 4194 ft | 197 kts | 34° |
| 2026-04-28 21:57 | 53.37829 | -113.51568 | 4403 ft | 216 kts | 35° |
| 2026-04-28 21:57 | 53.39098 | -113.50040 | 4707 ft | 231 kts | 34° |
| 2026-04-28 21:58 | 53.40287 | -113.48106 | 4971 ft | 250 kts | 59° |
| 2026-04-28 21:58 | 53.40705 | -113.45261 | 5256 ft | 267 kts | 91° |
| 2026-04-28 21:58 | 53.40379 | -113.42156 | 5814 ft | 272 kts | 103° |
| 2026-04-28 21:58 | 53.39906 | -113.39102 | 6393 ft | 275 kts | 102° |
| 2026-04-28 21:59 | 53.39467 | -113.35958 | 6976 ft | 277 kts | 101° |
| 2026-04-28 21:59 | 53.39077 | -113.32813 | 7543 ft | 280 kts | 101° |
| 2026-04-28 21:59 | 53.38708 | -113.29602 | 8112 ft | 283 kts | 100° |
| 2026-04-28 22:00 | 53.37979 | -113.23105 | 9254 ft | 289 kts | 100° |
| 2026-04-28 22:00 | 53.37608 | -113.19810 | 9811 ft | 292 kts | 100° |
| 2026-04-28 22:00 | 53.37224 | -113.16431 | 10330 ft | 298 kts | 100° |
| 2026-04-28 22:00 | 53.36826 | -113.12948 | 10564 ft | 313 kts | 100° |
| 2026-04-28 22:01 | 53.36411 | -113.09310 | 10776 ft | 328 kts | 100° |
| 2026-04-28 22:01 | 53.35973 | -113.05502 | 10972 ft | 344 kts | 99° |
| 2026-04-28 22:01 | 53.35510 | -113.01498 | 11157 ft | 359 kts | 99° |
| 2026-04-28 22:01 | 53.35024 | -112.97295 | 11332 ft | 375 kts | 99° |
| 2026-04-28 22:02 | 53.34524 | -112.92966 | 11654 ft | 384 kts | 99° |
| 2026-04-28 22:02 | 53.34012 | -112.88543 | 12198 ft | 388 kts | 99° |
| 2026-04-28 22:02 | 53.33500 | -112.84152 | 12724 ft | 391 kts | 99° |
| 2026-04-28 22:02 | 53.32978 | -112.79677 | 13272 ft | 395 kts | 99° |
| 2026-04-28 22:03 | 53.32448 | -112.75157 | 13826 ft | 398 kts | 99° |
| 2026-04-28 22:03 | 53.31910 | -112.70640 | 14379 ft | 401 kts | 99° |
| 2026-04-28 22:03 | 53.31364 | -112.66075 | 14936 ft | 405 kts | 99° |
| 2026-04-28 22:03 | 53.30810 | -112.61430 | 15508 ft | 408 kts | 99° |
| 2026-04-28 22:04 | 53.30257 | -112.56795 | 16070 ft | 411 kts | 99° |
| 2026-04-28 22:04 | 53.29698 | -112.52119 | 16622 ft | 414 kts | 99° |
| 2026-04-28 22:04 | 53.29131 | -112.47394 | 17164 ft | 417 kts | 99° |
| 2026-04-28 22:04 | 53.28559 | -112.42636 | 17698 ft | 420 kts | 98° |
| 2026-04-28 22:05 | 53.28036 | -112.37889 | 18213 ft | 422 kts | 96° |
| 2026-04-28 22:05 | 53.27720 | -112.33016 | 18723 ft | 423 kts | 90° |
| 2026-04-28 22:05 | 53.27776 | -112.28107 | 19228 ft | 424 kts | 83° |
| 2026-04-28 22:05 | 53.28060 | -112.23263 | 19715 ft | 425 kts | 81° |
| 2026-04-28 22:06 | 53.28457 | -112.18355 | 20192 ft | 427 kts | 78° |
| 2026-04-28 22:06 | 53.28989 | -112.13458 | 20692 ft | 429 kts | 76° |
| 2026-04-28 22:06 | 53.29579 | -112.08603 | 21151 ft | 431 kts | 76° |
| 2026-04-28 22:06 | 53.30192 | -112.03668 | 21598 ft | 434 kts | 76° |
| 2026-04-28 22:07 | 53.30790 | -111.98759 | 22029 ft | 437 kts | 76° |
| 2026-04-28 22:07 | 53.31379 | -111.93771 | 22453 ft | 440 kts | 76° |
| 2026-04-28 22:07 | 53.31955 | -111.88720 | 22871 ft | 443 kts | 77° |
| 2026-04-28 22:07 | 53.32513 | -111.83704 | 23266 ft | 446 kts | 77° |
| 2026-04-28 22:08 | 53.33072 | -111.78587 | 23654 ft | 448 kts | 77° |
| 2026-04-28 22:08 | 53.33626 | -111.73437 | 24036 ft | 451 kts | 77° |
| 2026-04-28 22:08 | 53.34170 | -111.68324 | 24408 ft | 453 kts | 77° |
| 2026-04-28 22:08 | 53.34723 | -111.63094 | 24772 ft | 456 kts | 77° |
| 2026-04-28 22:09 | 53.35267 | -111.57913 | 25123 ft | 459 kts | 77° |
| 2026-04-28 22:09 | 53.35813 | -111.52667 | 25477 ft | 461 kts | 77° |
| 2026-04-28 22:09 | 53.36362 | -111.47370 | 25829 ft | 464 kts | 77° |
| 2026-04-28 22:09 | 53.36908 | -111.42071 | 26174 ft | 466 kts | 77° |
| 2026-04-28 22:10 | 53.37460 | -111.36693 | 26519 ft | 469 kts | 77° |
| 2026-04-28 22:10 | 53.38008 | -111.31335 | 26853 ft | 471 kts | 78° |
| 2026-04-28 22:10 | 53.38558 | -111.25924 | 27186 ft | 474 kts | 78° |
| 2026-04-28 22:10 | 53.39108 | -111.20483 | 27543 ft | 475 kts | 78° |
| 2026-04-28 22:11 | 53.39656 | -111.15037 | 28025 ft | 473 kts | 78° |
| 2026-04-28 22:11 | 53.40191 | -111.09695 | 28429 ft | 472 kts | 78° |
| 2026-04-28 22:11 | 53.40731 | -111.04272 | 28827 ft | 471 kts | 78° |
| 2026-04-28 22:11 | 53.41262 | -110.98920 | 29239 ft | 470 kts | 78° |
| 2026-04-28 22:12 | 53.41796 | -110.93521 | 29663 ft | 469 kts | 78° |
| 2026-04-28 22:12 | 53.42327 | -110.88127 | 30109 ft | 468 kts | 78° |
| 2026-04-28 22:12 | 53.42851 | -110.82768 | 30558 ft | 467 kts | 78° |
| 2026-04-28 22:12 | 53.43371 | -110.77433 | 30983 ft | 466 kts | 78° |
| 2026-04-28 22:13 | 53.43883 | -110.72150 | 31387 ft | 465 kts | 78° |
| 2026-04-28 22:13 | 53.44400 | -110.66795 | 31790 ft | 464 kts | 78° |
| 2026-04-28 22:13 | 53.44906 | -110.61523 | 32181 ft | 463 kts | 78° |
| 2026-04-28 22:13 | 53.45416 | -110.56193 | 32533 ft | 462 kts | 78° |
| 2026-04-28 22:14 | 53.45923 | -110.50870 | 32851 ft | 461 kts | 78° |
| 2026-04-28 22:14 | 53.46423 | -110.45577 | 33160 ft | 461 kts | 78° |
| 2026-04-28 22:14 | 53.46923 | -110.40272 | 33460 ft | 460 kts | 78° |
| 2026-04-28 22:14 | 53.47419 | -110.34983 | 33744 ft | 459 kts | 79° |
| 2026-04-28 22:15 | 53.47921 | -110.29605 | 34012 ft | 459 kts | 79° |
| 2026-04-28 22:15 | 53.48424 | -110.24191 | 34282 ft | 459 kts | 79° |
| 2026-04-28 22:15 | 53.48918 | -110.18839 | 34546 ft | 458 kts | 79° |
| 2026-04-28 22:15 | 53.49406 | -110.13531 | 34791 ft | 458 kts | 79° |
| 2026-04-28 22:16 | 53.49889 | -110.08248 | 35026 ft | 458 kts | 79° |
| 2026-04-28 22:16 | 53.50373 | -110.02923 | 35151 ft | 459 kts | 79° |
| 2026-04-28 22:16 | 53.50861 | -109.97532 | 35173 ft | 460 kts | 79° |
| 2026-04-28 22:17 | 53.51804 | -109.87022 | 35135 ft | 456 kts | 78° |
| 2026-04-28 22:17 | 53.52741 | -109.76478 | 35132 ft | 457 kts | 78° |
| 2026-04-28 22:18 | 53.53675 | -109.65868 | 35132 ft | 456 kts | 78° |
| 2026-04-28 22:18 | 53.54591 | -109.55345 | 35131 ft | 456 kts | 78° |
| 2026-04-28 22:19 | 53.55494 | -109.44851 | 35128 ft | 456 kts | 78° |
| 2026-04-28 22:19 | 53.56395 | -109.34272 | 35128 ft | 456 kts | 79° |
| 2026-04-28 22:20 | 53.57281 | -109.23755 | 35126 ft | 456 kts | 79° |
| 2026-04-28 22:20 | 53.58161 | -109.13212 | 35127 ft | 456 kts | 79° |
| 2026-04-28 22:21 | 53.59026 | -109.02721 | 35125 ft | 456 kts | 79° |
| 2026-04-28 22:21 | 53.59889 | -108.92147 | 35122 ft | 456 kts | 79° |
| 2026-04-28 22:22 | 53.60737 | -108.81636 | 35121 ft | 455 kts | 79° |
| 2026-04-28 22:22 | 53.61575 | -108.71115 | 35122 ft | 454 kts | 79° |
| 2026-04-28 22:23 | 53.62404 | -108.60583 | 35121 ft | 454 kts | 79° |
| 2026-04-28 22:23 | 53.63223 | -108.50078 | 35117 ft | 453 kts | 79° |
| 2026-04-28 22:24 | 53.64028 | -108.39625 | 35117 ft | 452 kts | 79° |
| 2026-04-28 22:24 | 53.64830 | -108.29097 | 35117 ft | 452 kts | 79° |
| 2026-04-28 22:25 | 53.65612 | -108.18699 | 35122 ft | 451 kts | 79° |
| 2026-04-28 22:25 | 53.66390 | -108.08237 | 35126 ft | 451 kts | 79° |
| 2026-04-28 22:26 | 53.67155 | -107.97813 | 35130 ft | 451 kts | 79° |
| 2026-04-28 22:26 | 53.67917 | -107.87338 | 35134 ft | 451 kts | 79° |
| 2026-04-28 22:27 | 53.68671 | -107.76820 | 35131 ft | 451 kts | 79° |
| 2026-04-28 22:27 | 53.69407 | -107.66399 | 35133 ft | 451 kts | 79° |
| 2026-04-28 22:28 | 53.70136 | -107.55959 | 35134 ft | 451 kts | 79° |
| 2026-04-28 22:28 | 53.70857 | -107.45500 | 35135 ft | 451 kts | 79° |
| 2026-04-28 22:29 | 53.71572 | -107.34992 | 35132 ft | 451 kts | 80° |
| 2026-04-28 22:29 | 53.72273 | -107.24558 | 35133 ft | 452 kts | 80° |
| 2026-04-28 22:30 | 53.72969 | -107.14062 | 35134 ft | 451 kts | 80° |
| 2026-04-28 22:30 | 53.73656 | -107.03545 | 35138 ft | 451 kts | 80° |
| 2026-04-28 22:31 | 53.74333 | -106.93045 | 35141 ft | 451 kts | 80° |
| 2026-04-28 22:31 | 53.74996 | -106.82618 | 35142 ft | 451 kts | 80° |
| 2026-04-28 22:32 | 53.75655 | -106.72115 | 35145 ft | 451 kts | 80° |
| 2026-04-28 22:32 | 53.76304 | -106.61607 | 35144 ft | 451 kts | 80° |
| 2026-04-28 22:33 | 53.76942 | -106.51128 | 35147 ft | 450 kts | 80° |
| 2026-04-28 22:33 | 53.77573 | -106.40620 | 35148 ft | 450 kts | 80° |
| 2026-04-28 22:34 | 53.78191 | -106.30170 | 35151 ft | 449 kts | 81° |
| 2026-04-28 22:34 | 53.78799 | -106.19720 | 35149 ft | 449 kts | 81° |
| 2026-04-28 22:35 | 53.79400 | -106.09240 | 35150 ft | 448 kts | 81° |
| 2026-04-28 22:35 | 53.79990 | -105.98794 | 35150 ft | 448 kts | 81° |
| 2026-04-28 22:36 | 53.80572 | -105.88335 | 35149 ft | 447 kts | 81° |
| 2026-04-28 22:36 | 53.81142 | -105.77917 | 35149 ft | 447 kts | 81° |
| 2026-04-28 22:37 | 53.81705 | -105.67474 | 35150 ft | 448 kts | 81° |
| 2026-04-28 22:37 | 53.82261 | -105.56985 | 35154 ft | 449 kts | 81° |
| 2026-04-28 22:38 | 53.82806 | -105.46513 | 35151 ft | 449 kts | 81° |
| 2026-04-28 22:38 | 53.83345 | -105.35983 | 35152 ft | 449 kts | 81° |
| 2026-04-28 22:39 | 53.83873 | -105.25476 | 35149 ft | 450 kts | 82° |
| 2026-04-28 22:39 | 53.84392 | -105.14971 | 35149 ft | 451 kts | 82° |
| 2026-04-28 22:40 | 53.84904 | -105.04414 | 35148 ft | 451 kts | 82° |
| 2026-04-28 22:40 | 53.85404 | -104.93922 | 35150 ft | 452 kts | 83° |
| 2026-04-28 22:41 | 53.85901 | -104.83305 | 35153 ft | 452 kts | 83° |
| 2026-04-28 22:41 | 53.86384 | -104.72731 | 35158 ft | 453 kts | 83° |
| 2026-04-28 22:42 | 53.86859 | -104.62153 | 35164 ft | 453 kts | 83° |
| 2026-04-28 22:42 | 53.87326 | -104.51585 | 35166 ft | 453 kts | 83° |
| 2026-04-28 22:43 | 53.87786 | -104.40932 | 35170 ft | 453 kts | 83° |
| 2026-04-28 22:43 | 53.88235 | -104.30324 | 35169 ft | 453 kts | 84° |
| 2026-04-28 22:44 | 53.88673 | -104.19726 | 35170 ft | 453 kts | 84° |
| 2026-04-28 22:44 | 53.89104 | -104.09095 | 35168 ft | 453 kts | 84° |
| 2026-04-28 22:45 | 53.89523 | -103.98534 | 35170 ft | 453 kts | 84° |
| 2026-04-28 22:45 | 53.89936 | -103.87887 | 35171 ft | 453 kts | 84° |
| 2026-04-28 22:46 | 53.90335 | -103.77327 | 35171 ft | 453 kts | 84° |
| 2026-04-28 22:46 | 53.90728 | -103.66692 | 35172 ft | 453 kts | 84° |
| 2026-04-28 22:47 | 53.91111 | -103.56081 | 35172 ft | 453 kts | 84° |
| 2026-04-28 22:47 | 53.91486 | -103.45408 | 35173 ft | 454 kts | 84° |
| 2026-04-28 22:48 | 53.91849 | -103.34818 | 35172 ft | 454 kts | 85° |
| 2026-04-28 22:48 | 53.92206 | -103.24141 | 35173 ft | 455 kts | 85° |
| 2026-04-28 22:49 | 53.92552 | -103.13500 | 35174 ft | 455 kts | 85° |
| 2026-04-28 22:49 | 53.92892 | -103.02747 | 35174 ft | 456 kts | 85° |
| 2026-04-28 22:50 | 53.93221 | -102.92021 | 35176 ft | 457 kts | 85° |
| 2026-04-28 22:50 | 53.93540 | -102.81334 | 35176 ft | 457 kts | 85° |
| 2026-04-28 22:51 | 53.93850 | -102.70630 | 35178 ft | 458 kts | 85° |
| 2026-04-28 22:51 | 53.94151 | -102.59829 | 35177 ft | 458 kts | 86° |
| 2026-04-28 22:52 | 53.94442 | -102.49128 | 35179 ft | 458 kts | 86° |
| 2026-04-28 22:52 | 53.94726 | -102.38315 | 35179 ft | 458 kts | 86° |
| 2026-04-28 22:53 | 53.95000 | -102.27518 | 35178 ft | 459 kts | 87° |
| 2026-04-28 22:53 | 53.95264 | -102.16749 | 35175 ft | 459 kts | 87° |
| 2026-04-28 22:54 | 53.95517 | -102.05984 | 35174 ft | 458 kts | 87° |
| 2026-04-28 22:54 | 53.95760 | -101.95264 | 35173 ft | 458 kts | 87° |
| 2026-04-28 22:55 | 53.95995 | -101.84444 | 35172 ft | 458 kts | 87° |
| 2026-04-28 22:55 | 53.96220 | -101.73694 | 35172 ft | 458 kts | 87° |
| 2026-04-28 22:56 | 53.96434 | -101.62943 | 35171 ft | 458 kts | 87° |
| 2026-04-28 22:56 | 53.96641 | -101.52100 | 35172 ft | 459 kts | 87° |
| 2026-04-28 22:57 | 53.96837 | -101.41348 | 35171 ft | 459 kts | 87° |
| 2026-04-28 22:57 | 53.97023 | -101.30575 | 35170 ft | 459 kts | 88° |
| 2026-04-28 22:58 | 53.97200 | -101.19730 | 35170 ft | 460 kts | 88° |
| 2026-04-28 22:58 | 53.97433 | -101.08962 | 35171 ft | 460 kts | 88° |
| 2026-04-28 22:59 | 53.97224 | -100.98136 | 35173 ft | 461 kts | 94° |
| 2026-04-28 22:59 | 53.96662 | -100.87309 | 35173 ft | 461 kts | 95° |
| 2026-04-28 23:00 | 53.96088 | -100.76537 | 35175 ft | 461 kts | 95° |
| 2026-04-28 23:00 | 53.95551 | -100.65778 | 35175 ft | 461 kts | 94° |
| 2026-04-28 23:01 | 53.95039 | -100.54962 | 35176 ft | 461 kts | 94° |
| 2026-04-28 23:01 | 53.94537 | -100.44109 | 35176 ft | 461 kts | 94° |
| 2026-04-28 23:02 | 53.94037 | -100.33316 | 35177 ft | 461 kts | 95° |
| 2026-04-28 23:02 | 53.93529 | -100.22491 | 35176 ft | 462 kts | 95° |
| 2026-04-28 23:03 | 53.93013 | -100.11684 | 35175 ft | 462 kts | 95° |
| 2026-04-28 23:03 | 53.92486 | -100.00864 | 35174 ft | 462 kts | 95° |
| 2026-04-28 23:04 | 53.91949 | -99.90036 | 35170 ft | 462 kts | 95° |
| 2026-04-28 23:04 | 53.91127 | -99.73830 | 35162 ft | 462 kts | 95° |
| 2026-04-28 23:05 | 53.90567 | -99.63044 | 35158 ft | 462 kts | 95° |
| 2026-04-28 23:05 | 53.89999 | -99.52278 | 35153 ft | 461 kts | 95° |
| 2026-04-28 23:06 | 53.89420 | -99.41496 | 35149 ft | 461 kts | 95° |
| 2026-04-28 23:06 | 53.88830 | -99.30713 | 35147 ft | 462 kts | 96° |
| 2026-04-28 23:07 | 53.88230 | -99.19901 | 35147 ft | 462 kts | 96° |
| 2026-04-28 23:07 | 53.87624 | -99.09154 | 35148 ft | 462 kts | 96° |
| 2026-04-28 23:08 | 53.87005 | -98.98379 | 35150 ft | 462 kts | 96° |
| 2026-04-28 23:08 | 53.86378 | -98.87613 | 35150 ft | 462 kts | 96° |
| 2026-04-28 23:09 | 53.85739 | -98.76846 | 35149 ft | 462 kts | 96° |
| 2026-04-28 23:09 | 53.85091 | -98.66049 | 35150 ft | 462 kts | 96° |
| 2026-04-28 23:10 | 53.84434 | -98.55290 | 35149 ft | 461 kts | 96° |
| 2026-04-28 23:10 | 53.83768 | -98.44525 | 35150 ft | 461 kts | 96° |
| 2026-04-28 23:11 | 53.83093 | -98.33783 | 35150 ft | 461 kts | 96° |
| 2026-04-28 23:11 | 53.82409 | -98.23073 | 35150 ft | 460 kts | 96° |
| 2026-04-28 23:12 | 53.81715 | -98.12353 | 35150 ft | 460 kts | 97° |
| 2026-04-28 23:12 | 53.81013 | -98.01653 | 35149 ft | 460 kts | 96° |
| 2026-04-28 23:13 | 53.80299 | -97.90910 | 35148 ft | 460 kts | 96° |
| 2026-04-28 23:13 | 53.79580 | -97.80238 | 35147 ft | 460 kts | 97° |
| 2026-04-28 23:14 | 53.78845 | -97.69475 | 35146 ft | 460 kts | 97° |
| 2026-04-28 23:14 | 53.78104 | -97.58768 | 35145 ft | 460 kts | 97° |
| 2026-04-28 23:15 | 53.77355 | -97.48081 | 35143 ft | 460 kts | 97° |
| 2026-04-28 23:15 | 53.76596 | -97.37414 | 35142 ft | 461 kts | 97° |
| 2026-04-28 23:16 | 53.75825 | -97.26710 | 35141 ft | 460 kts | 98° |
| 2026-04-28 23:16 | 53.75042 | -97.15979 | 35141 ft | 461 kts | 98° |
| 2026-04-28 23:17 | 53.74258 | -97.05365 | 35140 ft | 460 kts | 98° |
| 2026-04-28 23:17 | 53.73456 | -96.94631 | 35140 ft | 460 kts | 98° |
| 2026-04-28 23:18 | 53.72646 | -96.83934 | 35137 ft | 461 kts | 98° |
| 2026-04-28 23:18 | 53.71831 | -96.73275 | 35135 ft | 461 kts | 98° |
| 2026-04-28 23:19 | 53.71004 | -96.62620 | 35132 ft | 460 kts | 98° |
| 2026-04-28 23:19 | 53.70164 | -96.51918 | 35129 ft | 460 kts | 98° |
| 2026-04-28 23:20 | 53.69317 | -96.41241 | 35127 ft | 461 kts | 98° |
| 2026-04-28 23:20 | 53.68462 | -96.30579 | 35124 ft | 460 kts | 99° |
| 2026-04-28 23:21 | 53.67594 | -96.19888 | 35123 ft | 460 kts | 99° |
| 2026-04-28 23:21 | 53.66723 | -96.09290 | 35120 ft | 460 kts | 99° |
| 2026-04-28 23:22 | 53.65837 | -95.98620 | 35117 ft | 460 kts | 99° |
| 2026-04-28 23:22 | 53.64938 | -95.87920 | 35115 ft | 460 kts | 99° |
| 2026-04-28 23:23 | 53.64041 | -95.77337 | 35114 ft | 459 kts | 100° |
| 2026-04-28 23:23 | 53.63126 | -95.66670 | 35110 ft | 459 kts | 100° |
| 2026-04-28 23:24 | 53.62194 | -95.55936 | 35108 ft | 459 kts | 100° |
| 2026-04-28 23:24 | 53.61267 | -95.45365 | 35108 ft | 459 kts | 100° |
| 2026-04-28 23:25 | 53.60324 | -95.34721 | 35107 ft | 459 kts | 101° |
| 2026-04-28 23:25 | 53.59373 | -95.24094 | 35108 ft | 459 kts | 101° |
| 2026-04-28 23:26 | 53.58410 | -95.13456 | 35109 ft | 459 kts | 101° |
| 2026-04-28 23:26 | 53.57443 | -95.02871 | 35109 ft | 459 kts | 101° |
| 2026-04-28 23:27 | 53.56466 | -94.92284 | 35109 ft | 458 kts | 101° |
| 2026-04-28 23:27 | 53.55479 | -94.81695 | 35112 ft | 458 kts | 101° |
| 2026-04-28 23:28 | 53.54480 | -94.71088 | 35113 ft | 458 kts | 101° |
| 2026-04-28 23:28 | 53.53476 | -94.60527 | 35114 ft | 458 kts | 101° |
| 2026-04-28 23:29 | 53.52458 | -94.49937 | 35114 ft | 458 kts | 102° |
| 2026-04-28 23:29 | 53.51432 | -94.39352 | 35113 ft | 458 kts | 102° |
| 2026-04-28 23:30 | 53.50407 | -94.28878 | 35111 ft | 457 kts | 103° |
| 2026-04-28 23:30 | 53.49365 | -94.18328 | 35107 ft | 457 kts | 103° |
| 2026-04-28 23:31 | 53.48312 | -94.07774 | 35103 ft | 457 kts | 103° |
| 2026-04-28 23:31 | 53.47257 | -93.97301 | 35097 ft | 457 kts | 103° |
| 2026-04-28 23:32 | 53.46195 | -93.86846 | 35092 ft | 457 kts | 103° |
| 2026-04-28 23:32 | 53.45111 | -93.76270 | 35095 ft | 457 kts | 103° |
| 2026-04-28 23:33 | 53.44032 | -93.65836 | 35097 ft | 456 kts | 103° |
| 2026-04-28 23:33 | 53.42943 | -93.55396 | 35090 ft | 455 kts | 103° |
| 2026-04-28 23:34 | 53.41842 | -93.44939 | 35086 ft | 455 kts | 103° |
| 2026-04-28 23:34 | 53.40736 | -93.34522 | 35083 ft | 455 kts | 104° |
| 2026-04-28 23:35 | 53.39618 | -93.24091 | 35081 ft | 454 kts | 104° |
| 2026-04-28 23:35 | 53.38490 | -93.13659 | 35080 ft | 454 kts | 104° |
| 2026-04-28 23:36 | 53.37362 | -93.03317 | 35078 ft | 453 kts | 104° |
| 2026-04-28 23:36 | 53.36214 | -92.92878 | 35078 ft | 453 kts | 104° |
| 2026-04-28 23:37 | 53.35073 | -92.82579 | 35077 ft | 453 kts | 104° |
| 2026-04-28 23:37 | 53.33917 | -92.72237 | 35076 ft | 452 kts | 104° |
| 2026-04-28 23:38 | 53.32744 | -92.61835 | 35075 ft | 452 kts | 104° |
| 2026-04-28 23:38 | 53.31575 | -92.51552 | 35073 ft | 452 kts | 104° |
| 2026-04-28 23:39 | 53.30386 | -92.41180 | 35071 ft | 452 kts | 104° |
| 2026-04-28 23:39 | 53.29201 | -92.30915 | 35068 ft | 451 kts | 105° |
| 2026-04-28 23:40 | 53.28006 | -92.20654 | 35065 ft | 450 kts | 105° |
| 2026-04-28 23:40 | 53.26808 | -92.10448 | 35060 ft | 450 kts | 105° |
| 2026-04-28 23:41 | 53.25596 | -92.00193 | 35058 ft | 450 kts | 105° |
| 2026-04-28 23:41 | 53.24377 | -91.89970 | 35062 ft | 449 kts | 105° |
| 2026-04-28 23:42 | 53.23156 | -91.79823 | 35060 ft | 449 kts | 105° |
| 2026-04-28 23:42 | 53.21921 | -91.69618 | 35048 ft | 448 kts | 105° |
| 2026-04-28 23:43 | 53.20682 | -91.59457 | 35045 ft | 448 kts | 105° |
| 2026-04-28 23:43 | 53.19433 | -91.49287 | 35044 ft | 448 kts | 105° |
| 2026-04-28 23:44 | 53.18172 | -91.39099 | 35042 ft | 448 kts | 105° |
| 2026-04-28 23:44 | 53.16899 | -91.28896 | 35040 ft | 448 kts | 106° |
| 2026-04-28 23:45 | 53.15628 | -91.18783 | 35040 ft | 448 kts | 106° |
| 2026-04-28 23:45 | 53.14347 | -91.08664 | 35040 ft | 448 kts | 106° |
| 2026-04-28 23:46 | 53.13059 | -90.98567 | 35040 ft | 448 kts | 106° |
| 2026-04-28 23:46 | 53.11760 | -90.88455 | 35039 ft | 448 kts | 106° |
| 2026-04-28 23:47 | 53.10456 | -90.78371 | 35036 ft | 449 kts | 106° |
| 2026-04-28 23:47 | 53.09139 | -90.68269 | 35034 ft | 449 kts | 106° |
| 2026-04-28 23:48 | 53.07812 | -90.58151 | 35031 ft | 449 kts | 106° |
| 2026-04-28 23:48 | 53.06474 | -90.48025 | 35026 ft | 449 kts | 106° |
| 2026-04-28 23:49 | 53.05127 | -90.37907 | 35018 ft | 449 kts | 106° |
| 2026-04-28 23:49 | 53.03779 | -90.27844 | 35011 ft | 448 kts | 107° |
| 2026-04-28 23:50 | 53.02426 | -90.17818 | 35010 ft | 448 kts | 107° |
| 2026-04-28 23:50 | 53.01052 | -90.07709 | 35007 ft | 448 kts | 107° |
| 2026-04-28 23:51 | 52.99658 | -89.97665 | 35000 ft | 447 kts | 108° |
| 2026-04-28 23:51 | 52.97937 | -89.87778 | 34994 ft | 446 kts | 111° |
| 2026-04-28 23:52 | 52.96058 | -89.78051 | 34991 ft | 446 kts | 111° |
| 2026-04-28 23:52 | 52.94160 | -89.68260 | 34985 ft | 446 kts | 111° |
| 2026-04-28 23:53 | 52.92292 | -89.58516 | 34976 ft | 446 kts | 111° |
| 2026-04-28 23:53 | 52.90443 | -89.48803 | 34968 ft | 446 kts | 111° |
| 2026-04-28 23:54 | 52.88583 | -89.39033 | 34965 ft | 446 kts | 111° |
| 2026-04-28 23:54 | 52.86724 | -89.29298 | 34962 ft | 445 kts | 111° |
| 2026-04-28 23:55 | 52.84861 | -89.19579 | 34960 ft | 446 kts | 111° |
| 2026-04-28 23:55 | 52.82975 | -89.09794 | 34956 ft | 445 kts | 111° |
| 2026-04-28 23:56 | 52.81096 | -89.00090 | 34953 ft | 445 kts | 111° |
| 2026-04-28 23:56 | 52.79214 | -88.90421 | 34950 ft | 445 kts | 111° |
| 2026-04-28 23:57 | 52.77303 | -88.80668 | 34949 ft | 445 kts | 111° |
| 2026-04-28 23:57 | 52.75403 | -88.71007 | 34946 ft | 445 kts | 111° |
| 2026-04-28 23:58 | 52.73488 | -88.61305 | 34942 ft | 445 kts | 111° |
| 2026-04-28 23:58 | 52.71560 | -88.51599 | 34937 ft | 445 kts | 111° |
| 2026-04-28 23:59 | 52.69637 | -88.41962 | 34933 ft | 445 kts | 111° |
| 2026-04-28 23:59 | 52.67706 | -88.32344 | 34928 ft | 445 kts | 112° |
| 2026-04-29 00:00 | 52.65765 | -88.22721 | 34923 ft | 444 kts | 112° |
| 2026-04-29 00:00 | 52.63803 | -88.13037 | 34919 ft | 445 kts | 112° |
| 2026-04-29 00:01 | 52.61850 | -88.03445 | 34915 ft | 444 kts | 112° |
| 2026-04-29 00:01 | 52.59892 | -87.93872 | 34912 ft | 444 kts | 112° |
| 2026-04-29 00:02 | 52.57919 | -87.84272 | 34909 ft | 444 kts | 112° |
| 2026-04-29 00:02 | 52.55951 | -87.74747 | 34905 ft | 444 kts | 112° |
| 2026-04-29 00:03 | 52.53961 | -87.65160 | 34900 ft | 444 kts | 112° |
| 2026-04-29 00:03 | 52.51978 | -87.55654 | 34899 ft | 443 kts | 112° |
| 2026-04-29 00:04 | 52.49975 | -87.46093 | 34897 ft | 443 kts | 112° |
| 2026-04-29 00:04 | 52.47962 | -87.36533 | 34898 ft | 443 kts | 112° |
| 2026-04-29 00:05 | 52.45948 | -87.27016 | 34898 ft | 443 kts | 113° |
| 2026-04-29 00:05 | 52.43932 | -87.17528 | 34898 ft | 443 kts | 113° |
| 2026-04-29 00:06 | 52.41906 | -87.08046 | 34899 ft | 443 kts | 113° |
| 2026-04-29 00:06 | 52.39875 | -86.98582 | 34899 ft | 443 kts | 113° |
| 2026-04-29 00:07 | 52.37840 | -86.89139 | 34900 ft | 443 kts | 113° |
| 2026-04-29 00:07 | 52.35790 | -86.79671 | 34900 ft | 442 kts | 113° |
| 2026-04-29 00:08 | 52.33738 | -86.70236 | 34900 ft | 442 kts | 113° |
| 2026-04-29 00:08 | 52.31679 | -86.60818 | 34900 ft | 442 kts | 112° |
| 2026-04-29 00:09 | 52.29617 | -86.51427 | 34901 ft | 441 kts | 112° |
| 2026-04-29 00:09 | 52.27548 | -86.42044 | 34901 ft | 441 kts | 112° |
| 2026-04-29 00:10 | 52.25464 | -86.32638 | 34902 ft | 441 kts | 113° |
| 2026-04-29 00:10 | 52.23380 | -86.23275 | 34904 ft | 440 kts | 113° |
| 2026-04-29 00:11 | 52.21295 | -86.13952 | 34907 ft | 440 kts | 113° |
| 2026-04-29 00:12 | 52.18143 | -85.99934 | 34908 ft | 440 kts | 113° |
| 2026-04-29 00:12 | 52.16025 | -85.90562 | 34906 ft | 440 kts | 113° |
| 2026-04-29 00:13 | 52.13919 | -85.81292 | 34898 ft | 440 kts | 113° |
| 2026-04-29 00:13 | 52.11794 | -85.71971 | 34889 ft | 440 kts | 113° |
| 2026-04-29 00:14 | 52.09652 | -85.62623 | 34877 ft | 440 kts | 113° |
| 2026-04-29 00:14 | 52.07511 | -85.53320 | 34864 ft | 440 kts | 113° |
| 2026-04-29 00:15 | 52.05379 | -85.44092 | 34860 ft | 440 kts | 113° |
| 2026-04-29 00:15 | 52.03222 | -85.34802 | 34856 ft | 441 kts | 114° |
| 2026-04-29 00:16 | 52.01059 | -85.25523 | 34820 ft | 440 kts | 114° |
| 2026-04-29 00:16 | 51.98895 | -85.16283 | 34770 ft | 441 kts | 114° |
| 2026-04-29 00:17 | 51.96719 | -85.07029 | 34742 ft | 442 kts | 114° |
| 2026-04-29 00:17 | 51.94516 | -84.97702 | 34733 ft | 443 kts | 114° |
| 2026-04-29 00:18 | 51.92313 | -84.88410 | 34731 ft | 443 kts | 114° |
| 2026-04-29 00:18 | 51.90098 | -84.79113 | 34724 ft | 443 kts | 114° |
| 2026-04-29 00:19 | 51.87875 | -84.69825 | 34718 ft | 444 kts | 114° |
| 2026-04-29 00:19 | 51.85650 | -84.60558 | 34710 ft | 444 kts | 114° |
| 2026-04-29 00:20 | 51.83406 | -84.51260 | 34687 ft | 444 kts | 114° |
| 2026-04-29 00:20 | 51.81164 | -84.42009 | 34646 ft | 444 kts | 114° |
| 2026-04-29 00:21 | 51.78904 | -84.32730 | 34631 ft | 447 kts | 113° |
| 2026-04-29 00:21 | 51.76613 | -84.23360 | 34762 ft | 451 kts | 112° |
| 2026-04-29 00:21 | 51.75478 | -84.18728 | 35063 ft | 448 kts | 112° |
| 2026-04-29 00:22 | 51.74327 | -84.14044 | 35285 ft | 447 kts | 112° |
| 2026-04-29 00:22 | 51.73172 | -84.09350 | 35500 ft | 447 kts | 112° |
| 2026-04-29 00:22 | 51.72031 | -84.04728 | 35675 ft | 447 kts | 112° |
| 2026-04-29 00:22 | 51.70872 | -84.00038 | 35807 ft | 448 kts | 112° |
| 2026-04-29 00:23 | 51.69736 | -83.95453 | 35934 ft | 448 kts | 112° |
| 2026-04-29 00:23 | 51.68576 | -83.90783 | 36059 ft | 449 kts | 112° |
| 2026-04-29 00:23 | 51.67414 | -83.86111 | 36188 ft | 449 kts | 112° |
| 2026-04-29 00:23 | 51.66260 | -83.81484 | 36308 ft | 450 kts | 112° |
| 2026-04-29 00:24 | 51.65087 | -83.76791 | 36427 ft | 450 kts | 112° |
| 2026-04-29 00:24 | 51.63927 | -83.72161 | 36554 ft | 451 kts | 113° |
| 2026-04-29 00:24 | 51.62748 | -83.67461 | 36605 ft | 452 kts | 113° |
| 2026-04-29 00:25 | 51.60390 | -83.58097 | 36609 ft | 453 kts | 113° |
| 2026-04-29 00:25 | 51.58025 | -83.48740 | 36612 ft | 454 kts | 113° |
| 2026-04-29 00:26 | 51.55655 | -83.39403 | 36616 ft | 454 kts | 113° |
| 2026-04-29 00:26 | 51.53265 | -83.30026 | 36616 ft | 454 kts | 114° |
| 2026-04-29 00:27 | 51.50874 | -83.20685 | 36615 ft | 454 kts | 114° |
| 2026-04-29 00:27 | 51.48474 | -83.11350 | 36613 ft | 455 kts | 114° |
| 2026-04-29 00:28 | 51.46064 | -83.02010 | 36611 ft | 455 kts | 115° |
| 2026-04-29 00:28 | 51.43644 | -82.92677 | 36610 ft | 455 kts | 115° |
| 2026-04-29 00:29 | 51.41221 | -82.83369 | 36610 ft | 455 kts | 115° |
| 2026-04-29 00:29 | 51.38776 | -82.74011 | 36611 ft | 455 kts | 115° |
| 2026-04-29 00:30 | 51.36338 | -82.64723 | 36612 ft | 456 kts | 115° |
| 2026-04-29 00:30 | 51.33882 | -82.55402 | 36613 ft | 456 kts | 115° |
| 2026-04-29 00:31 | 51.31427 | -82.46124 | 36613 ft | 456 kts | 115° |
| 2026-04-29 00:31 | 51.28962 | -82.36844 | 36612 ft | 456 kts | 115° |
| 2026-04-29 00:32 | 51.26517 | -82.27512 | 36570 ft | 456 kts | 114° |
| 2026-04-29 00:32 | 51.24531 | -82.17940 | 36525 ft | 457 kts | 109° |
| 2026-04-29 00:33 | 51.22807 | -82.08239 | 36520 ft | 458 kts | 108° |
| 2026-04-29 00:33 | 51.21123 | -81.98462 | 36523 ft | 458 kts | 108° |
| 2026-04-29 00:34 | 51.19422 | -81.88735 | 36522 ft | 458 kts | 108° |
| 2026-04-29 00:34 | 51.17690 | -81.79025 | 36520 ft | 458 kts | 108° |
| 2026-04-29 00:35 | 51.15929 | -81.69269 | 36518 ft | 457 kts | 109° |
| 2026-04-29 00:35 | 51.14166 | -81.59589 | 36515 ft | 457 kts | 109° |
| 2026-04-29 00:36 | 51.12397 | -81.49940 | 36512 ft | 457 kts | 109° |
| 2026-04-29 00:36 | 51.10611 | -81.40262 | 36509 ft | 457 kts | 109° |
| 2026-04-29 00:37 | 51.08818 | -81.30588 | 36506 ft | 457 kts | 110° |
| 2026-04-29 00:37 | 51.07016 | -81.20922 | 36503 ft | 457 kts | 110° |
| 2026-04-29 00:38 | 51.05217 | -81.11316 | 36499 ft | 457 kts | 110° |
| 2026-04-29 00:38 | 51.03396 | -81.01649 | 36495 ft | 457 kts | 110° |
| 2026-04-29 00:39 | 51.01579 | -80.92049 | 36492 ft | 456 kts | 110° |
| 2026-04-29 00:39 | 50.99754 | -80.82458 | 36489 ft | 456 kts | 110° |
| 2026-04-29 00:40 | 50.97911 | -80.72825 | 36486 ft | 456 kts | 110° |
| 2026-04-29 00:40 | 50.96064 | -80.63213 | 36485 ft | 456 kts | 110° |
| 2026-04-29 00:41 | 50.94206 | -80.53594 | 36484 ft | 456 kts | 110° |
| 2026-04-29 00:41 | 50.92342 | -80.43998 | 36484 ft | 455 kts | 110° |
| 2026-04-29 00:42 | 50.90465 | -80.34373 | 36484 ft | 455 kts | 111° |
| 2026-04-29 00:42 | 50.88597 | -80.24850 | 36485 ft | 454 kts | 111° |
| 2026-04-29 00:43 | 50.86724 | -80.15350 | 36486 ft | 454 kts | 111° |
| 2026-04-29 00:43 | 50.84830 | -80.05789 | 36488 ft | 454 kts | 111° |
| 2026-04-29 00:44 | 50.82937 | -79.96282 | 36492 ft | 454 kts | 111° |
| 2026-04-29 00:44 | 50.81043 | -79.86816 | 36500 ft | 454 kts | 111° |
| 2026-04-29 00:45 | 50.79135 | -79.77327 | 36508 ft | 453 kts | 112° |
| 2026-04-29 00:45 | 50.77230 | -79.67887 | 36508 ft | 453 kts | 112° |
| 2026-04-29 00:46 | 50.75314 | -79.58450 | 36510 ft | 453 kts | 112° |
| 2026-04-29 00:46 | 50.73389 | -79.49012 | 36516 ft | 453 kts | 112° |
| 2026-04-29 00:47 | 50.71455 | -79.39574 | 36522 ft | 453 kts | 112° |
| 2026-04-29 00:47 | 50.69529 | -79.30216 | 36529 ft | 452 kts | 112° |
| 2026-04-29 00:48 | 50.67578 | -79.20788 | 36536 ft | 452 kts | 113° |
| 2026-04-29 00:48 | 50.65634 | -79.11443 | 36541 ft | 451 kts | 113° |
| 2026-04-29 00:49 | 50.63683 | -79.02099 | 36548 ft | 451 kts | 113° |
| 2026-04-29 00:49 | 50.61721 | -78.92742 | 36554 ft | 451 kts | 113° |
| 2026-04-29 00:50 | 50.59750 | -78.83390 | 36561 ft | 451 kts | 113° |
| 2026-04-29 00:50 | 50.57774 | -78.74056 | 36567 ft | 451 kts | 113° |
| 2026-04-29 00:51 | 50.55799 | -78.64771 | 36573 ft | 450 kts | 113° |
| 2026-04-29 00:51 | 50.53804 | -78.55437 | 36579 ft | 450 kts | 113° |
| 2026-04-29 00:52 | 50.51811 | -78.46152 | 36584 ft | 450 kts | 113° |
| 2026-04-29 00:52 | 50.49814 | -78.36891 | 36589 ft | 450 kts | 113° |
| 2026-04-29 00:53 | 50.47807 | -78.27625 | 36595 ft | 449 kts | 114° |
| 2026-04-29 00:53 | 50.45794 | -78.18378 | 36600 ft | 449 kts | 114° |
| 2026-04-29 00:54 | 50.43785 | -78.09188 | 36604 ft | 449 kts | 114° |
| 2026-04-29 00:54 | 50.41752 | -77.99937 | 36608 ft | 449 kts | 114° |
| 2026-04-29 00:55 | 50.39714 | -77.90692 | 36610 ft | 449 kts | 114° |
| 2026-04-29 00:55 | 50.37680 | -77.81519 | 36616 ft | 449 kts | 114° |
| 2026-04-29 00:56 | 50.35635 | -77.72325 | 36619 ft | 448 kts | 114° |
| 2026-04-29 00:56 | 50.33579 | -77.63119 | 36620 ft | 448 kts | 114° |
| 2026-04-29 00:57 | 50.31528 | -77.53982 | 36623 ft | 448 kts | 114° |
| 2026-04-29 00:57 | 50.29458 | -77.44801 | 36629 ft | 448 kts | 115° |
| 2026-04-29 00:58 | 50.27390 | -77.35676 | 36631 ft | 447 kts | 115° |
| 2026-04-29 00:58 | 50.25322 | -77.26617 | 36637 ft | 445 kts | 115° |
| 2026-04-29 00:59 | 50.23250 | -77.17533 | 36638 ft | 445 kts | 115° |
| 2026-04-29 00:59 | 50.21183 | -77.08438 | 36644 ft | 444 kts | 116° |
| 2026-04-29 01:00 | 50.19104 | -76.99406 | 36648 ft | 443 kts | 116° |
| 2026-04-29 01:00 | 50.16996 | -76.90360 | 36650 ft | 442 kts | 116° |
| 2026-04-29 01:01 | 50.14903 | -76.81367 | 36651 ft | 442 kts | 116° |
| 2026-04-29 01:01 | 50.12810 | -76.72364 | 36656 ft | 442 kts | 116° |
| 2026-04-29 01:02 | 50.10703 | -76.63351 | 36659 ft | 440 kts | 117° |
| 2026-04-29 01:02 | 50.08615 | -76.54436 | 36659 ft | 438 kts | 117° |
| 2026-04-29 01:03 | 50.06491 | -76.45593 | 36665 ft | 438 kts | 117° |
| 2026-04-29 01:03 | 50.04377 | -76.36682 | 36662 ft | 438 kts | 117° |
| 2026-04-29 01:04 | 50.02275 | -76.27839 | 36676 ft | 436 kts | 118° |
| 2026-04-29 01:04 | 50.00180 | -76.19070 | 36678 ft | 436 kts | 118° |
| 2026-04-29 01:05 | 49.98063 | -76.10198 | 36684 ft | 436 kts | 118° |
| 2026-04-29 01:05 | 49.95945 | -76.01399 | 36688 ft | 435 kts | 118° |
| 2026-04-29 01:06 | 49.93830 | -75.92612 | 36694 ft | 436 kts | 118° |
| 2026-04-29 01:06 | 49.91707 | -75.83909 | 36702 ft | 435 kts | 119° |
| 2026-04-29 01:07 | 49.89557 | -75.75137 | 36718 ft | 435 kts | 118° |
| 2026-04-29 01:07 | 49.87398 | -75.66413 | 36720 ft | 436 kts | 118° |
| 2026-04-29 01:08 | 49.85276 | -75.57614 | 36733 ft | 435 kts | 118° |
| 2026-04-29 01:08 | 49.83126 | -75.48931 | 36740 ft | 436 kts | 118° |
| 2026-04-29 01:09 | 49.80955 | -75.40108 | 36748 ft | 436 kts | 118° |
| 2026-04-29 01:09 | 49.78749 | -75.31383 | 36757 ft | 436 kts | 119° |
| 2026-04-29 01:10 | 49.76570 | -75.22658 | 36766 ft | 435 kts | 119° |
| 2026-04-29 01:10 | 49.74386 | -75.13940 | 36770 ft | 436 kts | 119° |
| 2026-04-29 01:11 | 49.72199 | -75.05227 | 36780 ft | 435 kts | 118° |
| 2026-04-29 01:11 | 49.69992 | -74.96495 | 36786 ft | 434 kts | 118° |
| 2026-04-29 01:12 | 49.67766 | -74.87741 | 36789 ft | 434 kts | 118° |
| 2026-04-29 01:12 | 49.65565 | -74.79114 | 36790 ft | 434 kts | 118° |
| 2026-04-29 01:13 | 49.63341 | -74.70425 | 36790 ft | 434 kts | 118° |
| 2026-04-29 01:13 | 49.61118 | -74.61770 | 36790 ft | 434 kts | 118° |
| 2026-04-29 01:14 | 49.58904 | -74.53177 | 36789 ft | 434 kts | 118° |
| 2026-04-29 01:14 | 49.56673 | -74.44550 | 36788 ft | 433 kts | 118° |
| 2026-04-29 01:15 | 49.54448 | -74.35985 | 36788 ft | 433 kts | 118° |
| 2026-04-29 01:15 | 49.52194 | -74.27338 | 36788 ft | 432 kts | 119° |
| 2026-04-29 01:16 | 49.49948 | -74.18754 | 36789 ft | 433 kts | 119° |
| 2026-04-29 01:16 | 49.47703 | -74.10205 | 36787 ft | 433 kts | 119° |
| 2026-04-29 01:17 | 49.45438 | -74.01612 | 36787 ft | 433 kts | 119° |
| 2026-04-29 01:17 | 49.43174 | -73.93060 | 36794 ft | 433 kts | 118° |
| 2026-04-29 01:18 | 49.40918 | -73.84564 | 36800 ft | 433 kts | 118° |
| 2026-04-29 01:18 | 49.37500 | -73.71751 | 36796 ft | 434 kts | 118° |
| 2026-04-29 01:19 | 49.35218 | -73.63232 | 36801 ft | 434 kts | 118° |
| 2026-04-29 01:19 | 49.32918 | -73.54684 | 36810 ft | 435 kts | 118° |
| 2026-04-29 01:20 | 49.30610 | -73.46137 | 36820 ft | 435 kts | 118° |
| 2026-04-29 01:20 | 49.28293 | -73.37591 | 36830 ft | 436 kts | 118° |
| 2026-04-29 01:21 | 49.25966 | -73.29035 | 36836 ft | 436 kts | 119° |
| 2026-04-29 01:21 | 49.23637 | -73.20503 | 36842 ft | 436 kts | 119° |
| 2026-04-29 01:22 | 49.21308 | -73.12004 | 36850 ft | 437 kts | 119° |
| 2026-04-29 01:22 | 49.18952 | -73.03436 | 36858 ft | 437 kts | 119° |
| 2026-04-29 01:23 | 49.16489 | -72.94991 | 36867 ft | 435 kts | 122° |
| 2026-04-29 01:23 | 49.13692 | -72.86912 | 36875 ft | 434 kts | 124° |
| 2026-04-29 01:24 | 49.10789 | -72.78837 | 36881 ft | 435 kts | 124° |
| 2026-04-29 01:24 | 49.07913 | -72.70786 | 36886 ft | 435 kts | 124° |
| 2026-04-29 01:25 | 49.05037 | -72.62666 | 36891 ft | 436 kts | 123° |
| 2026-04-29 01:25 | 49.02182 | -72.54570 | 36895 ft | 437 kts | 123° |
| 2026-04-29 01:26 | 48.99314 | -72.46439 | 36899 ft | 437 kts | 123° |
| 2026-04-29 01:26 | 48.96428 | -72.38274 | 36902 ft | 438 kts | 123° |
| 2026-04-29 01:27 | 48.93550 | -72.30150 | 36904 ft | 437 kts | 124° |
| 2026-04-29 01:27 | 48.90669 | -72.22041 | 36904 ft | 437 kts | 124° |
| 2026-04-29 01:28 | 48.87781 | -72.13940 | 36906 ft | 438 kts | 124° |
| 2026-04-29 01:28 | 48.84893 | -72.05866 | 36909 ft | 438 kts | 124° |
| 2026-04-29 01:29 | 48.81983 | -71.97755 | 36914 ft | 439 kts | 124° |
| 2026-04-29 01:29 | 48.79070 | -71.89661 | 36925 ft | 441 kts | 123° |
| 2026-04-29 01:30 | 48.76131 | -71.81525 | 36928 ft | 443 kts | 123° |
| 2026-04-29 01:30 | 48.73162 | -71.73323 | 36922 ft | 444 kts | 123° |
| 2026-04-29 01:31 | 48.70209 | -71.65193 | 36924 ft | 444 kts | 123° |
| 2026-04-29 01:31 | 48.67232 | -71.57020 | 36931 ft | 444 kts | 123° |
| 2026-04-29 01:32 | 48.64266 | -71.48904 | 36937 ft | 444 kts | 123° |
| 2026-04-29 01:32 | 48.61269 | -71.40730 | 36946 ft | 445 kts | 123° |
| 2026-04-29 01:33 | 48.58268 | -71.32571 | 36953 ft | 445 kts | 124° |
| 2026-04-29 01:33 | 48.55271 | -71.24447 | 36961 ft | 445 kts | 123° |
| 2026-04-29 01:34 | 48.52251 | -71.16291 | 36968 ft | 446 kts | 123° |
| 2026-04-29 01:34 | 48.49307 | -71.08092 | 36974 ft | 449 kts | 119° |
| 2026-04-29 01:35 | 48.47010 | -70.99263 | 36981 ft | 454 kts | 113° |
| 2026-04-29 01:35 | 48.45023 | -70.90298 | 36986 ft | 455 kts | 112° |
| 2026-04-29 01:36 | 48.43025 | -70.81267 | 36988 ft | 456 kts | 112° |
| 2026-04-29 01:36 | 48.40984 | -70.72315 | 36991 ft | 456 kts | 112° |
| 2026-04-29 01:37 | 48.38885 | -70.63310 | 36999 ft | 458 kts | 112° |
| 2026-04-29 01:37 | 48.36747 | -70.54267 | 37005 ft | 459 kts | 112° |
| 2026-04-29 01:38 | 48.34610 | -70.45291 | 37007 ft | 460 kts | 112° |
| 2026-04-29 01:38 | 48.32453 | -70.36274 | 37007 ft | 461 kts | 112° |
| 2026-04-29 01:39 | 48.30283 | -70.27241 | 37008 ft | 461 kts | 112° |
| 2026-04-29 01:39 | 48.28105 | -70.18211 | 37010 ft | 462 kts | 112° |
| 2026-04-29 01:40 | 48.25920 | -70.09188 | 37012 ft | 462 kts | 112° |
| 2026-04-29 01:40 | 48.23713 | -70.00114 | 37015 ft | 463 kts | 112° |
| 2026-04-29 01:41 | 48.21503 | -69.91068 | 37021 ft | 464 kts | 112° |
| 2026-04-29 01:41 | 48.19272 | -69.81969 | 37030 ft | 464 kts | 112° |
| 2026-04-29 01:42 | 48.17040 | -69.72903 | 37036 ft | 464 kts | 112° |
| 2026-04-29 01:42 | 48.14796 | -69.63824 | 37042 ft | 465 kts | 112° |
| 2026-04-29 01:43 | 48.12556 | -69.54799 | 37048 ft | 465 kts | 112° |
| 2026-04-29 01:43 | 48.10298 | -69.45740 | 37054 ft | 464 kts | 111° |
| 2026-04-29 01:44 | 48.08041 | -69.36718 | 37061 ft | 464 kts | 111° |
| 2026-04-29 01:44 | 48.05790 | -69.27760 | 37068 ft | 464 kts | 112° |
| 2026-04-29 01:45 | 48.03516 | -69.18755 | 37076 ft | 465 kts | 112° |
| 2026-04-29 01:45 | 48.01233 | -69.09737 | 37082 ft | 465 kts | 112° |
| 2026-04-29 01:46 | 47.98948 | -69.00746 | 37085 ft | 464 kts | 112° |
| 2026-04-29 01:46 | 47.96668 | -68.91816 | 37078 ft | 465 kts | 111° |
| 2026-04-29 01:47 | 47.94352 | -68.82781 | 37088 ft | 467 kts | 111° |
| 2026-04-29 01:47 | 47.92027 | -68.73741 | 37114 ft | 467 kts | 111° |
| 2026-04-29 01:48 | 47.89692 | -68.64700 | 37117 ft | 466 kts | 110° |
| 2026-04-29 01:48 | 47.87360 | -68.55708 | 37117 ft | 467 kts | 110° |
| 2026-04-29 01:49 | 47.85013 | -68.46688 | 37120 ft | 467 kts | 110° |
| 2026-04-29 01:49 | 47.82646 | -68.37633 | 37123 ft | 467 kts | 110° |
| 2026-04-29 01:50 | 47.80289 | -68.28650 | 37126 ft | 468 kts | 111° |
| 2026-04-29 01:50 | 47.77922 | -68.19665 | 37131 ft | 467 kts | 110° |
| 2026-04-29 01:51 | 47.75559 | -68.10728 | 37138 ft | 466 kts | 110° |
| 2026-04-29 01:51 | 47.73182 | -68.01772 | 37111 ft | 467 kts | 110° |
| 2026-04-29 01:52 | 47.70783 | -67.92770 | 37092 ft | 466 kts | 110° |
| 2026-04-29 01:52 | 47.68401 | -67.83864 | 37101 ft | 467 kts | 110° |
| 2026-04-29 01:53 | 47.65998 | -67.74919 | 37106 ft | 467 kts | 110° |
| 2026-04-29 01:53 | 47.63610 | -67.66062 | 37121 ft | 466 kts | 110° |
| 2026-04-29 01:54 | 47.61198 | -67.57144 | 37133 ft | 466 kts | 110° |
| 2026-04-29 01:54 | 47.58788 | -67.48274 | 37142 ft | 466 kts | 110° |
| 2026-04-29 01:55 | 47.56360 | -67.39371 | 37145 ft | 465 kts | 110° |
| 2026-04-29 01:55 | 47.53936 | -67.30509 | 37152 ft | 465 kts | 110° |
| 2026-04-29 01:56 | 47.51490 | -67.21606 | 37162 ft | 465 kts | 110° |
| 2026-04-29 01:56 | 47.49072 | -67.12837 | 37171 ft | 464 kts | 110° |
| 2026-04-29 01:57 | 47.46627 | -67.03999 | 37178 ft | 464 kts | 110° |
| 2026-04-29 01:57 | 47.44195 | -66.95243 | 37183 ft | 463 kts | 110° |
| 2026-04-29 01:58 | 47.41746 | -66.86459 | 37181 ft | 462 kts | 110° |
| 2026-04-29 01:58 | 47.39313 | -66.77762 | 37172 ft | 461 kts | 109° |
| 2026-04-29 01:59 | 47.36866 | -66.69050 | 37163 ft | 461 kts | 109° |
| 2026-04-29 01:59 | 47.34411 | -66.60338 | 37164 ft | 460 kts | 109° |
| 2026-04-29 02:00 | 47.31969 | -66.51705 | 37169 ft | 459 kts | 109° |
| 2026-04-29 02:00 | 47.29510 | -66.43041 | 37174 ft | 459 kts | 109° |
| 2026-04-29 02:01 | 47.27059 | -66.34438 | 37179 ft | 458 kts | 110° |
| 2026-04-29 02:01 | 47.24599 | -66.25833 | 37190 ft | 458 kts | 110° |
| 2026-04-29 02:02 | 47.22133 | -66.17239 | 37202 ft | 457 kts | 110° |
| 2026-04-29 02:02 | 47.19658 | -66.08643 | 37214 ft | 457 kts | 109° |
| 2026-04-29 02:03 | 47.17185 | -66.00085 | 37225 ft | 458 kts | 109° |
| 2026-04-29 02:03 | 47.14708 | -65.91545 | 37229 ft | 457 kts | 109° |
| 2026-04-29 02:04 | 47.12210 | -65.82963 | 37233 ft | 457 kts | 109° |
| 2026-04-29 02:04 | 47.09716 | -65.74425 | 37236 ft | 455 kts | 109° |
| 2026-04-29 02:05 | 47.07234 | -65.65962 | 37220 ft | 451 kts | 109° |
| 2026-04-29 02:05 | 47.06006 | -65.61788 | 37019 ft | 446 kts | 109° |
| 2026-04-29 02:05 | 47.04786 | -65.57650 | 36656 ft | 442 kts | 109° |
| 2026-04-29 02:06 | 47.03566 | -65.53515 | 36134 ft | 443 kts | 109° |
| 2026-04-29 02:06 | 47.02359 | -65.49417 | 35467 ft | 448 kts | 109° |
| 2026-04-29 02:06 | 47.01112 | -65.45191 | 34679 ft | 452 kts | 109° |
| 2026-04-29 02:06 | 46.99881 | -65.41022 | 33912 ft | 455 kts | 109° |
| 2026-04-29 02:07 | 46.98615 | -65.36750 | 33120 ft | 458 kts | 109° |
| 2026-04-29 02:07 | 46.97339 | -65.32451 | 32280 ft | 460 kts | 110° |
| 2026-04-29 02:07 | 46.96067 | -65.28179 | 31380 ft | 462 kts | 110° |
| 2026-04-29 02:07 | 46.94785 | -65.23879 | 30493 ft | 462 kts | 110° |
| 2026-04-29 02:08 | 46.93511 | -65.19619 | 29669 ft | 462 kts | 110° |
| 2026-04-29 02:08 | 46.92228 | -65.15335 | 28975 ft | 457 kts | 111° |
| 2026-04-29 02:08 | 46.90957 | -65.11108 | 28341 ft | 450 kts | 111° |
| 2026-04-29 02:08 | 46.89708 | -65.06961 | 27704 ft | 443 kts | 111° |
| 2026-04-29 02:09 | 46.88488 | -65.02911 | 27070 ft | 437 kts | 111° |
| 2026-04-29 02:09 | 46.87265 | -64.98860 | 26441 ft | 432 kts | 111° |
| 2026-04-29 02:09 | 46.86074 | -64.94916 | 25845 ft | 426 kts | 112° |
| 2026-04-29 02:09 | 46.84886 | -64.90990 | 25229 ft | 422 kts | 112° |
| 2026-04-29 02:10 | 46.83717 | -64.87130 | 24614 ft | 418 kts | 112° |
| 2026-04-29 02:10 | 46.82550 | -64.83279 | 23991 ft | 414 kts | 112° |
| 2026-04-29 02:10 | 46.81390 | -64.79457 | 23361 ft | 410 kts | 112° |
| 2026-04-29 02:10 | 46.80249 | -64.75706 | 22749 ft | 406 kts | 112° |
| 2026-04-29 02:11 | 46.79108 | -64.71957 | 22133 ft | 402 kts | 112° |
| 2026-04-29 02:11 | 46.77985 | -64.68274 | 21526 ft | 398 kts | 113° |
| 2026-04-29 02:11 | 46.76862 | -64.64595 | 20921 ft | 395 kts | 113° |
| 2026-04-29 02:11 | 46.75762 | -64.61001 | 20317 ft | 391 kts | 113° |
| 2026-04-29 02:12 | 46.74652 | -64.57378 | 19710 ft | 388 kts | 113° |
| 2026-04-29 02:12 | 46.73576 | -64.53869 | 19283 ft | 379 kts | 113° |
| 2026-04-29 02:12 | 46.72513 | -64.50410 | 19059 ft | 365 kts | 113° |
| 2026-04-29 02:12 | 46.71503 | -64.47129 | 18910 ft | 354 kts | 113° |
| 2026-04-29 02:13 | 46.70482 | -64.43812 | 18776 ft | 366 kts | 113° |
| 2026-04-29 02:13 | 46.69426 | -64.40388 | 18641 ft | 374 kts | 113° |
| 2026-04-29 02:13 | 46.68372 | -64.36972 | 18509 ft | 368 kts | 113° |
| 2026-04-29 02:13 | 46.67346 | -64.33657 | 18360 ft | 357 kts | 114° |
| 2026-04-29 02:14 | 46.66319 | -64.30341 | 17983 ft | 361 kts | 114° |
| 2026-04-29 02:14 | 46.65278 | -64.26984 | 17289 ft | 365 kts | 114° |
| 2026-04-29 02:14 | 46.64249 | -64.23672 | 16747 ft | 362 kts | 114° |
| 2026-04-29 02:14 | 46.63216 | -64.20347 | 16218 ft | 359 kts | 114° |
| 2026-04-29 02:15 | 46.62199 | -64.17084 | 15695 ft | 356 kts | 114° |
| 2026-04-29 02:15 | 46.61177 | -64.13805 | 15159 ft | 353 kts | 114° |
| 2026-04-29 02:15 | 46.60166 | -64.10568 | 14607 ft | 351 kts | 114° |
| 2026-04-29 02:15 | 46.59178 | -64.07404 | 14067 ft | 348 kts | 114° |
| 2026-04-29 02:16 | 46.58174 | -64.04196 | 13518 ft | 346 kts | 114° |
| 2026-04-29 02:16 | 46.57178 | -64.01018 | 12972 ft | 343 kts | 114° |
| 2026-04-29 02:16 | 46.56204 | -63.97913 | 12434 ft | 341 kts | 114° |
| 2026-04-29 02:16 | 46.55223 | -63.94790 | 11893 ft | 339 kts | 114° |
| 2026-04-29 02:17 | 46.54260 | -63.91730 | 11409 ft | 335 kts | 114° |
| 2026-04-29 02:17 | 46.53304 | -63.88694 | 11184 ft | 323 kts | 114° |
| 2026-04-29 02:17 | 46.52387 | -63.85785 | 11014 ft | 310 kts | 114° |
| 2026-04-29 02:17 | 46.51515 | -63.83020 | 10860 ft | 298 kts | 114° |
| 2026-04-29 02:18 | 46.50665 | -63.80329 | 10711 ft | 287 kts | 115° |
| 2026-04-29 02:18 | 46.49851 | -63.77752 | 10572 ft | 276 kts | 115° |
| 2026-04-29 02:18 | 46.49066 | -63.75272 | 10342 ft | 270 kts | 115° |
| 2026-04-29 02:18 | 46.48285 | -63.72809 | 9995 ft | 269 kts | 115° |
| 2026-04-29 02:19 | 46.47506 | -63.70352 | 9650 ft | 267 kts | 115° |
| 2026-04-29 02:19 | 46.46730 | -63.67909 | 9304 ft | 266 kts | 115° |
| 2026-04-29 02:19 | 46.45956 | -63.65473 | 8960 ft | 264 kts | 115° |
| 2026-04-29 02:19 | 46.45190 | -63.63063 | 8617 ft | 263 kts | 115° |
| 2026-04-29 02:20 | 46.44432 | -63.60683 | 8276 ft | 261 kts | 115° |
| 2026-04-29 02:20 | 46.43677 | -63.58312 | 7937 ft | 260 kts | 116° |
| 2026-04-29 02:20 | 46.42917 | -63.55931 | 7596 ft | 258 kts | 116° |
| 2026-04-29 02:20 | 46.42173 | -63.53601 | 7261 ft | 257 kts | 116° |
| 2026-04-29 02:21 | 46.41422 | -63.51253 | 6923 ft | 256 kts | 116° |
| 2026-04-29 02:21 | 46.40676 | -63.48921 | 6584 ft | 254 kts | 116° |
| 2026-04-29 02:21 | 46.39937 | -63.46611 | 6252 ft | 253 kts | 116° |
| 2026-04-29 02:21 | 46.39203 | -63.44318 | 5922 ft | 251 kts | 116° |
| 2026-04-29 02:22 | 46.38479 | -63.42060 | 5664 ft | 247 kts | 116° |
| 2026-04-29 02:22 | 46.37768 | -63.39846 | 5539 ft | 237 kts | 116° |
| 2026-04-29 02:22 | 46.37087 | -63.37720 | 5391 ft | 227 kts | 115° |
| 2026-04-29 02:22 | 46.36588 | -63.35622 | 5215 ft | 221 kts | 101° |
| 2026-04-29 02:23 | 46.36675 | -63.33392 | 4824 ft | 228 kts | 78° |
| 2026-04-29 02:23 | 46.37140 | -63.31195 | 4426 ft | 231 kts | 75° |
| 2026-04-29 02:23 | 46.37614 | -63.28986 | 4119 ft | 228 kts | 77° |
| 2026-04-29 02:23 | 46.38032 | -63.26801 | 3824 ft | 225 kts | 78° |
| 2026-04-29 02:24 | 46.38424 | -63.24617 | 3531 ft | 221 kts | 79° |
| 2026-04-29 02:24 | 46.38801 | -63.22481 | 3246 ft | 219 kts | 79° |
| 2026-04-29 02:24 | 46.39180 | -63.20359 | 2962 ft | 216 kts | 79° |
| 2026-04-29 02:25 | 46.39647 | -63.16287 | 2459 ft | 190 kts | 101° |
| 2026-04-29 02:25 | 46.39235 | -63.14583 | 2195 ft | 173 kts | 121° |
| 2026-04-29 02:25 | 46.38610 | -63.13174 | 1985 ft | 160 kts | 129° |
| 2026-04-29 02:25 | 46.37846 | -63.12143 | 1803 ft | 144 kts | 147° |
| 2026-04-29 02:26 | 46.36967 | -63.11517 | 1631 ft | 141 kts | 158° |
| 2026-04-29 02:26 | 46.36017 | -63.11125 | 1441 ft | 142 kts | 171° |
| 2026-04-29 02:26 | 46.35020 | -63.11165 | 1264 ft | 145 kts | 185° |
| 2026-04-29 02:26 | 46.34008 | -63.11380 | 1101 ft | 148 kts | 186° |
| 2026-04-29 02:27 | 46.33001 | -63.11600 | 863 ft | 147 kts | 187° |
| 2026-04-29 02:27 | 46.31988 | -63.11827 | 658 ft | 148 kts | 187° |
| 2026-04-29 02:27 | 46.30962 | -63.12059 | 460 ft | 147 kts | 187° |
| 2026-04-29 02:27 | 46.29974 | -63.12280 | 254 ft | 146 kts | 187° |
| 2026-04-29 02:28 | 46.29008 | -63.12497 | 159 ft | 126 kts | 187° |
| 2026-04-29 02:28 | 46.28395 | -63.12635 | 157 ft | 54 kts | 189° |
| 2026-04-29 02:28 | 46.28133 | -63.12698 | 152 ft | 32 kts | 189° |
| 2026-04-29 02:28 | 46.28001 | -63.12736 | 151 ft | 11 kts | 224° |
| 2026-04-29 02:29 | 46.27968 | -63.12824 | 154 ft | 8 kts | 245° |
| 2026-04-29 02:29 | 46.27938 | -63.12915 | 155 ft | 15 kts | 246° |
| 2026-04-29 02:29 | 46.27952 | -63.13060 | 158 ft | 13 kts | 298° |
| 2026-04-29 02:29 | 46.28013 | -63.13115 | 161 ft | 9 kts | 2° |
| 2026-04-29 02:30 | 46.28118 | -63.13095 | 163 ft | 23 kts | 9° |
| 2026-04-29 02:30 | 46.28276 | -63.13058 | 166 ft | 22 kts | 9° |
| 2026-04-29 02:30 | 46.28415 | -63.12998 | 167 ft | 20 kts | 24° |
| 2026-04-29 02:30 | 46.28547 | -63.12965 | 168 ft | 16 kts | 338° |
| 2026-04-29 02:31 | 46.28574 | -63.13028 | 170 ft | 0 kts | 279° |